createdAt,value
2019-05-09T00:01:34.562Z,2.90
2019-05-09T00:04:03.497Z,2.80
2019-05-09T00:06:33.824Z,2.60
2019-05-09T00:09:03.778Z,2.70
2019-05-09T00:11:33.558Z,2.60
2019-05-09T00:14:04.246Z,1.90
2019-05-09T00:16:33.502Z,1.97
2019-05-09T00:19:03.272Z,1.80
2019-05-09T00:21:33.641Z,1.40
2019-05-09T00:24:03.559Z,1.63
2019-05-09T00:26:33.867Z,1.50
2019-05-09T00:29:07.051Z,1.70
2019-05-09T00:31:43.815Z,1.60
2019-05-09T00:34:14.407Z,1.20
2019-05-09T00:36:43.809Z,1.77
2019-05-09T00:39:13.394Z,1.40
2019-05-09T00:41:43.531Z,1.57
2019-05-09T00:44:16.733Z,1.60
2019-05-09T00:46:46.766Z,1.30
2019-05-09T00:49:16.797Z,1.67
2019-05-09T00:51:45.438Z,1.80
2019-05-09T00:54:13.914Z,1.60
2019-05-09T00:56:43.603Z,1.80
2019-05-09T00:59:13.482Z,1.60
2019-05-09T01:01:43.697Z,1.80
2019-05-09T01:04:13.657Z,1.80
2019-05-09T01:06:43.390Z,1.83
2019-05-09T01:09:13.705Z,1.97
2019-05-09T01:11:43.990Z,1.97
2019-05-09T01:14:14.169Z,2.10
2019-05-09T01:16:44.024Z,1.90
2019-05-09T01:19:14.129Z,1.83
2019-05-09T01:21:43.860Z,2.00
2019-05-09T01:24:13.960Z,2.00
2019-05-09T01:26:43.547Z,2.17
2019-05-09T01:29:13.716Z,1.90
2019-05-09T01:31:43.616Z,1.87
2019-05-09T01:34:17.207Z,1.80
2019-05-09T01:37:04.161Z,1.83
2019-05-09T01:39:33.790Z,1.80
2019-05-09T01:42:03.341Z,1.97
2019-05-09T01:44:33.466Z,1.93
2019-05-09T01:47:03.703Z,2.13
2019-05-09T01:49:34.146Z,2.20
2019-05-09T01:52:03.453Z,2.30
2019-05-09T01:54:33.239Z,2.00
2019-05-09T01:57:03.255Z,2.00
2019-05-09T01:59:33.980Z,2.20
2019-05-09T02:02:08.076Z,2.40
2019-05-09T02:04:33.455Z,2.20
2019-05-09T02:07:04.114Z,2.07
2019-05-09T02:09:34.232Z,1.77
2019-05-09T02:12:03.908Z,2.00
2019-05-09T02:14:36.514Z,2.10
2019-05-09T02:17:13.953Z,2.13
2019-05-09T02:19:44.113Z,2.30
2019-05-09T02:22:30.559Z,1.80
2019-05-09T02:24:58.958Z,1.80
2019-05-09T02:27:27.351Z,1.90
2019-05-09T02:29:55.746Z,2.40
2019-05-09T02:32:24.269Z,2.10
2019-05-09T02:34:54.728Z,1.87
2019-05-09T02:37:22.769Z,1.70
2019-05-09T02:39:51.460Z,2.00
2019-05-09T02:42:19.957Z,1.67
2019-05-09T02:44:49.258Z,1.77
2019-05-09T02:47:19.478Z,1.77
2019-05-09T02:49:48.592Z,1.80
2019-05-09T02:52:19.819Z,1.63
2019-05-09T02:54:50.009Z,1.80
2019-05-09T02:57:18.454Z,1.90
2019-05-09T02:59:54.944Z,1.70
2019-05-09T03:02:24.978Z,1.90
2019-05-09T03:04:53.433Z,1.60
2019-05-09T03:07:23.485Z,1.77
2019-05-09T03:09:51.938Z,1.60
2019-05-09T03:12:30.449Z,1.80
2019-05-09T03:14:50.520Z,1.87
2019-05-09T03:17:18.911Z,1.80
2019-05-09T03:19:48.827Z,1.60
2019-05-09T03:22:21.739Z,2.27
2019-05-09T03:24:50.145Z,1.80
2019-05-09T03:27:28.626Z,1.70
2019-05-09T03:29:58.860Z,2.07
2019-05-09T03:32:29.627Z,1.67
2019-05-09T03:34:58.294Z,2.07
2019-05-09T03:37:27.839Z,1.80
2019-05-09T03:39:58.066Z,2.20
2019-05-09T03:42:39.624Z,2.10
2019-05-09T03:44:58.062Z,1.97
2019-05-09T03:47:34.302Z,1.90
2019-05-09T03:50:17.695Z,2.00
2019-05-09T03:52:47.754Z,2.20
2019-05-09T03:55:18.358Z,1.97
2019-05-09T03:57:58.123Z,2.20
2019-05-09T04:00:28.310Z,1.90
2019-05-09T04:02:58.063Z,2.23
2019-05-09T04:05:27.286Z,1.83
2019-05-09T04:07:58.231Z,2.00
2019-05-09T04:10:28.209Z,2.00
2019-05-09T04:12:59.500Z,2.00
2019-05-09T04:15:27.515Z,2.10
2019-05-09T04:17:57.867Z,2.17
2019-05-09T04:20:27.683Z,2.27
2019-05-09T04:22:59.307Z,2.00
2019-05-09T04:25:28.062Z,2.00
2019-05-09T04:27:58.336Z,2.10
2019-05-09T04:30:27.419Z,1.97
2019-05-09T04:32:58.020Z,2.20
2019-05-09T04:35:27.964Z,2.23
2019-05-09T04:37:58.397Z,2.20
2019-05-09T04:40:31.596Z,2.10
2019-05-09T04:43:08.876Z,2.10
2019-05-09T04:45:45.034Z,2.47
2019-05-09T04:48:32.782Z,2.17
2019-05-09T04:51:02.709Z,2.13
2019-05-09T04:53:31.538Z,2.20
2019-05-09T04:56:01.570Z,2.30
2019-05-09T04:58:30.074Z,1.83
2019-05-09T05:01:11.756Z,2.47
2019-05-09T05:03:41.049Z,2.47
2019-05-09T05:06:09.447Z,3.00
2019-05-09T05:08:37.838Z,2.30
2019-05-09T05:11:07.458Z,2.73
2019-05-09T05:13:38.282Z,2.87
2019-05-09T05:16:08.193Z,2.63
2019-05-09T05:18:37.407Z,2.67
2019-05-09T05:21:07.829Z,2.40
2019-05-09T05:23:38.121Z,2.47
2019-05-09T05:26:06.694Z,2.30
2019-05-09T05:28:35.115Z,2.13
2019-05-09T05:31:03.512Z,2.80
2019-05-09T05:33:33.628Z,2.50
2019-05-09T05:36:07.862Z,2.73
2019-05-09T05:38:37.672Z,2.90
2019-05-09T05:41:07.999Z,2.93
2019-05-09T05:43:41.531Z,2.50
2019-05-09T05:46:23.218Z,2.63
2019-05-09T05:48:53.054Z,2.50
2019-05-09T05:51:21.455Z,2.50
2019-05-09T05:53:49.844Z,2.90
2019-05-09T05:56:18.262Z,2.37
2019-05-09T05:58:48.842Z,2.50
2019-05-09T06:01:18.790Z,2.53
2019-05-09T06:03:48.141Z,2.40
2019-05-09T06:06:17.514Z,2.37
2019-05-09T06:08:48.371Z,2.10
2019-05-09T06:11:17.727Z,2.50
2019-05-09T06:13:54.495Z,2.73
2019-05-09T06:16:18.219Z,2.63
2019-05-09T06:18:47.527Z,2.70
2019-05-09T06:21:17.706Z,2.30
2019-05-09T06:23:48.197Z,2.40
2019-05-09T06:26:18.599Z,2.33
2019-05-09T06:28:48.125Z,2.20
2019-05-09T06:31:17.916Z,2.47
2019-05-09T06:33:52.981Z,2.47
2019-05-09T06:36:18.846Z,2.40
2019-05-09T06:38:48.791Z,2.10
2019-05-09T06:41:17.695Z,2.30
2019-05-09T06:43:50.774Z,1.93
2019-05-09T06:46:37.805Z,1.80
2019-05-09T06:49:23.290Z,2.50
2019-05-09T06:51:38.746Z,2.10
2019-05-09T06:54:08.153Z,1.90
2019-05-09T06:56:38.106Z,1.97
2019-05-09T06:59:07.627Z,2.00
2019-05-09T07:01:43.549Z,1.80
2019-05-09T07:04:22.866Z,1.53
2019-05-09T07:06:52.907Z,2.03
2019-05-09T07:09:31.743Z,1.90
2019-05-09T07:12:00.528Z,2.20
2019-05-09T07:14:33.335Z,1.90
2019-05-09T07:17:00.418Z,1.90
2019-05-09T07:19:28.896Z,2.00
2019-05-09T07:22:18.442Z,2.07
2019-05-09T07:25:09.886Z,2.00
2019-05-09T07:27:42.555Z,1.57
2019-05-09T07:30:13.542Z,1.63
2019-05-09T07:32:43.575Z,1.60
2019-05-09T07:35:12.651Z,2.37
2019-05-09T07:37:41.049Z,1.77
2019-05-09T07:40:09.534Z,1.50
2019-05-09T07:42:39.085Z,1.80
2019-05-09T07:45:08.913Z,1.50
2019-05-09T07:47:38.788Z,1.70
2019-05-09T07:50:08.581Z,1.33
2019-05-09T07:52:38.779Z,1.40
2019-05-09T07:55:08.906Z,1.50
2019-05-09T07:57:45.816Z,1.47
2019-05-09T08:00:08.256Z,1.80
2019-05-09T08:02:38.671Z,1.57
2019-05-09T08:05:08.514Z,1.20
2019-05-09T08:07:38.076Z,1.87
2019-05-09T08:10:10.900Z,1.70
2019-05-09T08:12:38.911Z,1.30
2019-05-09T08:15:16.201Z,1.60
2019-05-09T08:17:38.128Z,1.20
2019-05-09T08:20:07.947Z,1.60
2019-05-09T08:22:40.922Z,1.40
2019-05-09T08:25:08.262Z,1.43
2019-05-09T08:27:37.957Z,1.30
2019-05-09T08:30:09.558Z,1.53
2019-05-09T08:32:38.135Z,1.50
2019-05-09T08:35:08.337Z,1.50
2019-05-09T08:37:58.034Z,1.33
2019-05-09T08:40:28.324Z,1.10
2019-05-09T08:42:58.893Z,1.10
2019-05-09T08:45:30.993Z,1.30
2019-05-09T08:47:57.920Z,1.10
2019-05-09T08:50:48.151Z,1.50
2019-05-09T08:53:18.845Z,1.33
2019-05-09T08:55:47.510Z,1.63
2019-05-09T08:58:19.293Z,1.40
2019-05-09T09:00:46.142Z,1.17
2019-05-09T09:03:14.551Z,1.60
2019-05-09T09:05:43.478Z,1.40
2019-05-09T09:08:12.031Z,1.40
2019-05-09T09:10:40.095Z,1.40
2019-05-09T09:13:09.029Z,1.17
2019-05-09T09:15:58.087Z,1.30
2019-05-09T09:18:08.699Z,1.20
2019-05-09T09:20:38.017Z,1.37
2019-05-09T09:23:08.842Z,1.50
2019-05-09T09:25:38.874Z,1.20
2019-05-09T09:28:08.838Z,1.33
2019-05-09T09:30:38.527Z,1.50
2019-05-09T09:33:11.297Z,1.53
2019-05-09T09:35:38.396Z,1.33
2019-05-09T09:38:09.058Z,1.50
2019-05-09T09:40:38.588Z,1.40
2019-05-09T09:43:09.154Z,1.62
2019-05-09T09:45:38.022Z,1.20
2019-05-09T09:48:09.021Z,1.30
2019-05-09T09:50:38.307Z,1.47
2019-05-09T09:53:08.850Z,1.20
2019-05-09T09:55:38.454Z,1.20
2019-05-09T09:58:08.263Z,1.20
2019-05-09T10:01:02.972Z,1.63
2019-05-09T10:03:30.070Z,1.50
2019-05-09T10:05:58.475Z,1.47
2019-05-09T10:08:26.962Z,1.40
2019-05-09T10:10:55.350Z,1.50
2019-05-09T10:13:23.752Z,1.33
2019-05-09T10:16:25.477Z,1.40
2019-05-09T10:18:41.951Z,1.20
2019-05-09T10:21:11.987Z,1.70
2019-05-09T10:23:40.386Z,1.57
2019-05-09T10:26:08.871Z,1.77
2019-05-09T10:28:37.987Z,1.17
2019-05-09T10:31:06.839Z,1.20
2019-05-09T10:33:37.357Z,1.23
2019-05-09T10:36:08.205Z,1.20
2019-05-09T10:38:35.591Z,1.50
2019-05-09T10:41:03.987Z,1.17
2019-05-09T10:43:51.910Z,1.20
2019-05-09T10:46:33.632Z,1.40
2019-05-09T10:48:59.467Z,1.60
2019-05-09T10:51:27.858Z,1.40
2019-05-09T10:53:58.530Z,1.20
2019-05-09T10:56:27.999Z,1.13
2019-05-09T10:58:58.508Z,1.43
2019-05-09T11:01:29.178Z,1.27
2019-05-09T11:03:58.869Z,1.27
2019-05-09T11:06:28.690Z,1.37
2019-05-09T11:08:58.385Z,1.70
2019-05-09T11:11:28.431Z,1.60
2019-05-09T11:13:58.757Z,1.20
2019-05-09T11:16:39.613Z,1.30
2019-05-09T11:18:58.550Z,1.33
2019-05-09T11:21:28.624Z,1.30
2019-05-09T11:23:58.249Z,1.60
2019-05-09T11:26:28.492Z,1.63
2019-05-09T11:28:58.703Z,1.33
2019-05-09T11:31:29.587Z,1.50
2019-05-09T11:33:58.054Z,1.40
2019-05-09T11:36:26.590Z,1.27
2019-05-09T11:38:55.059Z,1.40
2019-05-09T11:41:23.527Z,1.10
2019-05-09T11:43:51.919Z,1.33
2019-05-09T11:46:20.315Z,1.40
2019-05-09T11:48:48.723Z,1.40
2019-05-09T11:51:20.374Z,1.33
2019-05-09T11:53:48.545Z,1.17
2019-05-09T11:56:17.960Z,1.20
2019-05-09T11:58:48.050Z,1.53
2019-05-09T12:01:18.962Z,1.60
2019-05-09T12:03:49.907Z,1.37
2019-05-09T12:06:20.175Z,1.33
2019-05-09T12:08:48.523Z,1.27
2019-05-09T12:11:18.307Z,1.17
2019-05-09T12:13:48.500Z,1.57
2019-05-09T12:16:18.357Z,0.90
2019-05-09T12:18:48.837Z,0.90
2019-05-09T12:21:19.101Z,0.60
2019-05-09T12:23:48.849Z,0.90
2019-05-09T12:26:18.128Z,0.83
2019-05-09T12:28:48.112Z,1.10
2019-05-09T12:31:18.128Z,1.00
2019-05-09T12:33:48.276Z,0.70
2019-05-09T12:36:19.046Z,0.70
2019-05-09T12:38:49.970Z,0.57
2019-05-09T12:41:19.001Z,0.50
2019-05-09T12:43:47.809Z,0.57
2019-05-09T12:46:16.202Z,0.73
2019-05-09T12:48:44.683Z,0.83
2019-05-09T12:51:13.078Z,0.53
2019-05-09T12:53:41.472Z,0.70
2019-05-09T12:56:09.897Z,0.90
2019-05-09T12:58:38.298Z,0.80
2019-05-09T13:01:07.549Z,0.80
2019-05-09T13:03:38.253Z,0.70
2019-05-09T13:06:08.105Z,0.70
2019-05-09T13:08:38.559Z,0.73
2019-05-09T13:11:08.103Z,0.77
2019-05-09T13:13:41.014Z,0.70
2019-05-09T13:16:11.983Z,0.80
2019-05-09T13:18:40.291Z,0.50
2019-05-09T13:21:08.699Z,1.10
2019-05-09T13:23:37.118Z,0.50
2019-05-09T13:26:08.159Z,0.70
2019-05-09T13:28:37.771Z,0.73
2019-05-09T13:31:08.259Z,0.60
2019-05-09T13:33:38.307Z,0.77
2019-05-09T13:36:09.117Z,0.70
2019-05-09T13:38:37.848Z,0.73
2019-05-09T13:41:08.535Z,0.70
2019-05-09T13:43:45.823Z,0.50
2019-05-09T13:46:08.986Z,0.43
2019-05-09T13:48:57.433Z,0.50
2019-05-09T13:51:07.741Z,0.60
2019-05-09T13:53:38.572Z,0.50
2019-05-09T13:56:08.482Z,0.60
2019-05-09T13:58:38.466Z,0.40
2019-05-09T14:01:07.772Z,0.50
2019-05-09T14:03:38.605Z,0.50
2019-05-09T14:06:08.844Z,0.70
2019-05-09T14:08:38.994Z,0.50
2019-05-09T14:11:08.436Z,0.50
2019-05-09T14:13:38.476Z,1.00
2019-05-09T14:16:18.933Z,0.57
2019-05-09T14:18:38.543Z,0.40
2019-05-09T14:21:07.683Z,0.57
2019-05-09T14:23:45.498Z,0.60
2019-05-09T14:26:09.160Z,0.50
2019-05-09T14:28:36.563Z,0.50
2019-05-09T14:31:07.409Z,0.80
2019-05-09T14:33:35.313Z,0.50
2019-05-09T14:36:03.798Z,0.53
2019-05-09T14:38:32.264Z,0.60
2019-05-09T14:41:00.913Z,0.63
2019-05-09T14:43:29.562Z,0.60
2019-05-09T14:45:58.510Z,0.50
2019-05-09T14:48:28.684Z,0.50
2019-05-09T14:50:58.345Z,0.50
2019-05-09T14:53:28.256Z,0.57
2019-05-09T14:55:58.841Z,0.40
2019-05-09T14:58:28.848Z,0.53
2019-05-09T15:01:00.661Z,0.70
2019-05-09T15:03:27.753Z,0.80
2019-05-09T15:05:57.423Z,0.70
2019-05-09T15:08:27.829Z,0.60
2019-05-09T15:10:58.291Z,0.60
2019-05-09T15:13:28.389Z,0.40
2019-05-09T15:15:57.940Z,0.80
2019-05-09T15:18:26.501Z,0.67
2019-05-09T15:20:54.890Z,1.33
2019-05-09T15:23:23.299Z,1.20
2019-05-09T15:25:51.715Z,0.80
2019-05-09T15:28:20.192Z,1.10
2019-05-09T15:30:49.018Z,0.83
2019-05-09T15:33:17.653Z,0.50
2019-05-09T15:35:48.580Z,0.60
2019-05-09T15:38:18.158Z,0.60
2019-05-09T15:40:48.111Z,1.00
2019-05-09T15:43:18.599Z,0.87
2019-05-09T15:45:51.547Z,0.60
2019-05-09T15:48:19.986Z,0.90
2019-05-09T15:50:48.390Z,0.90
2019-05-09T15:53:18.475Z,0.70
2019-05-09T15:55:48.059Z,0.80
2019-05-09T15:58:18.766Z,1.30
2019-05-09T16:00:47.794Z,0.67
2019-05-09T16:03:18.448Z,0.93
2019-05-09T16:05:47.919Z,1.30
2019-05-09T16:08:18.579Z,2.20
2019-05-09T16:10:47.074Z,1.17
2019-05-09T16:13:17.790Z,1.00
2019-05-09T16:15:45.717Z,2.50
2019-05-09T16:18:14.115Z,3.73
2019-05-09T16:20:42.506Z,2.20
2019-05-09T16:23:11.314Z,1.33
2019-05-09T16:25:39.794Z,1.90
2019-05-09T16:28:08.331Z,1.40
2019-05-09T16:30:38.302Z,1.20
2019-05-09T16:33:08.077Z,1.43
2019-05-09T16:35:38.170Z,1.30
2019-05-09T16:38:10.611Z,1.30
2019-05-09T16:40:38.654Z,0.90
2019-05-09T16:43:09.089Z,1.05
2019-05-09T16:45:37.964Z,1.17
2019-05-09T16:48:11.458Z,1.40
2019-05-09T16:50:41.871Z,1.40
2019-05-09T16:53:09.345Z,1.27
2019-05-09T16:55:38.953Z,1.30
2019-05-09T16:58:08.672Z,1.60
2019-05-09T17:00:42.578Z,1.10
2019-05-09T17:03:11.046Z,1.17
2019-05-09T17:05:39.438Z,1.40
